sensor_id;sensor_type;location;lat;lon;timestamp;pressure;altitude;pressure_sealevel;temperature;humidity
44148;BME280;29810;55.848;37.368;2023-06-26T00:01:39;99024.91;;;18.72;55.54
44148;BME280;29810;55.848;37.368;2023-06-26T00:04:42;99027.31;;;18.75;55.99
44148;BME280;29810;55.848;37.368;2023-06-26T00:07:44;99027.31;;;18.75;56.43
44148;BME280;29810;55.848;37.368;2023-06-26T00:10:46;99019.63;;;18.72;57.41
44148;BME280;29810;55.848;37.368;2023-06-26T00:13:47;99025.03;;;18.70;57.57
44148;BME280;29810;55.848;37.368;2023-06-26T00:16:49;99025.37;;;18.66;57.23
44148;BME280;29810;55.848;37.368;2023-06-26T00:19:51;99003.34;;;18.54;57.90
44148;BME280;29810;55.848;37.368;2023-06-26T00:22:53;99020.31;;;18.63;58.46
44148;BME280;29810;55.848;37.368;2023-06-26T00:25:54;99014.53;;;18.58;58.79
44148;BME280;29810;55.848;37.368;2023-06-26T00:28:56;99018.87;;;18.59;59.12
44148;BME280;29810;55.848;37.368;2023-06-26T00:31:57;99020.06;;;18.54;59.39
44148;BME280;29810;55.848;37.368;2023-06-26T00:35:01;99022.19;;;18.49;59.79
44148;BME280;29810;55.848;37.368;2023-06-26T00:38:03;99016.81;;;18.38;60.16
44148;BME280;29810;55.848;37.368;2023-06-26T00:41:05;99015.72;;;18.16;60.59
44148;BME280;29810;55.848;37.368;2023-06-26T00:44:13;99016.53;;;17.93;61.49
44148;BME280;29810;55.848;37.368;2023-06-26T00:47:17;99013.25;;;17.76;61.92
44148;BME280;29810;55.848;37.368;2023-06-26T00:50:19;99014.91;;;17.77;62.63
44148;BME280;29810;55.848;37.368;2023-06-26T00:53:21;99021.69;;;17.81;62.20
44148;BME280;29810;55.848;37.368;2023-06-26T00:56:23;99015.78;;;17.91;62.06
44148;BME280;29810;55.848;37.368;2023-06-26T00:59:25;99019.38;;;18.02;61.32
44148;BME280;29810;55.848;37.368;2023-06-26T01:02:26;99010.69;;;18.13;60.91
44148;BME280;29810;55.848;37.368;2023-06-26T01:05:34;99010.25;;;18.19;60.26
44148;BME280;29810;55.848;37.368;2023-06-26T01:08:36;99015.28;;;18.23;60.62
44148;BME280;29810;55.848;37.368;2023-06-26T01:11:38;99011.31;;;18.17;60.66
44148;BME280;29810;55.848;37.368;2023-06-26T01:14:39;99011.88;;;18.33;60.13
44148;BME280;29810;55.848;37.368;2023-06-26T01:17:42;99007.34;;;18.35;60.83
44148;BME280;29810;55.848;37.368;2023-06-26T01:20:46;99011.81;;;18.22;61.09
44148;BME280;29810;55.848;37.368;2023-06-26T01:24:04;99009.81;;;18.26;61.29
44148;BME280;29810;55.848;37.368;2023-06-26T01:27:11;99008.16;;;18.36;61.77
44148;BME280;29810;55.848;37.368;2023-06-26T01:30:32;99001.47;;;18.19;61.80
44148;BME280;29810;55.848;37.368;2023-06-26T01:33:34;99001.41;;;18.08;62.61
44148;BME280;29810;55.848;37.368;2023-06-26T01:36:36;99010.31;;;17.94;63.16
44148;BME280;29810;55.848;37.368;2023-06-26T01:39:40;99015.78;;;17.78;64.37
44148;BME280;29810;55.848;37.368;2023-06-26T01:42:41;99008.41;;;17.70;64.45
44148;BME280;29810;55.848;37.368;2023-06-26T01:45:44;99007.66;;;17.68;64.58
44148;BME280;29810;55.848;37.368;2023-06-26T01:49:01;98998.28;;;17.51;65.42
44148;BME280;29810;55.848;37.368;2023-06-26T01:55:24;99008.72;;;17.78;64.44
44148;BME280;29810;55.848;37.368;2023-06-26T01:58:28;99013.69;;;17.57;65.79
44148;BME280;29810;55.848;37.368;2023-06-26T02:01:30;99016.53;;;17.54;66.38
44148;BME280;29810;55.848;37.368;2023-06-26T02:04:34;99025.37;;;17.53;66.78
44148;BME280;29810;55.848;37.368;2023-06-26T02:07:36;99024.13;;;17.59;66.45
44148;BME280;29810;55.848;37.368;2023-06-26T02:10:39;99023.59;;;17.66;66.68
44148;BME280;29810;55.848;37.368;2023-06-26T02:13:40;99025.06;;;17.70;66.17
44148;BME280;29810;55.848;37.368;2023-06-26T02:16:42;99023.16;;;17.85;66.07
44148;BME280;29810;55.848;37.368;2023-06-26T02:19:43;99010.59;;;18.02;65.36
44148;BME280;29810;55.848;37.368;2023-06-26T02:22:48;99015.72;;;18.16;63.66
44148;BME280;29810;55.848;37.368;2023-06-26T02:25:50;99016.31;;;18.33;62.63
44148;BME280;29810;55.848;37.368;2023-06-26T02:28:51;99004.78;;;18.47;62.15
44148;BME280;29810;55.848;37.368;2023-06-26T02:31:53;99015.31;;;18.71;61.57
44148;BME280;29810;55.848;37.368;2023-06-26T02:34:54;99008.91;;;18.86;60.54
44148;BME280;29810;55.848;37.368;2023-06-26T02:37:56;99005.44;;;19.22;61.07
44148;BME280;29810;55.848;37.368;2023-06-26T02:40:58;99011.25;;;19.38;60.57
44148;BME280;29810;55.848;37.368;2023-06-26T02:44:00;98991.66;;;19.41;60.06
44148;BME280;29810;55.848;37.368;2023-06-26T02:47:02;99012.56;;;19.66;59.79
44148;BME280;29810;55.848;37.368;2023-06-26T02:50:06;99011.00;;;19.75;59.92
44148;BME280;29810;55.848;37.368;2023-06-26T02:53:08;99010.19;;;19.75;60.22
44148;BME280;29810;55.848;37.368;2023-06-26T02:56:11;99019.19;;;19.72;60.15
44148;BME280;29810;55.848;37.368;2023-06-26T02:59:13;99014.12;;;19.69;58.24
44148;BME280;29810;55.848;37.368;2023-06-26T03:02:15;99002.72;;;19.57;58.66
44148;BME280;29810;55.848;37.368;2023-06-26T03:05:17;99018.09;;;19.52;59.08
44148;BME280;29810;55.848;37.368;2023-06-26T03:08:19;99015.66;;;19.37;60.16
44148;BME280;29810;55.848;37.368;2023-06-26T03:11:21;99010.84;;;19.20;60.87
44148;BME280;29810;55.848;37.368;2023-06-26T03:14:24;99013.44;;;19.09;60.55
44148;BME280;29810;55.848;37.368;2023-06-26T03:17:26;99021.38;;;19.09;59.85
44148;BME280;29810;55.848;37.368;2023-06-26T03:20:28;99027.22;;;19.01;60.36
44148;BME280;29810;55.848;37.368;2023-06-26T03:23:29;99019.78;;;19.06;60.08
44148;BME280;29810;55.848;37.368;2023-06-26T03:26:31;99019.28;;;19.48;59.58
44148;BME280;29810;55.848;37.368;2023-06-26T03:29:34;99012.44;;;19.79;58.76
44148;BME280;29810;55.848;37.368;2023-06-26T03:32:35;98995.41;;;19.95;57.83
44148;BME280;29810;55.848;37.368;2023-06-26T03:35:37;98991.69;;;20.09;57.28
44148;BME280;29810;55.848;37.368;2023-06-26T03:38:40;99006.94;;;20.16;57.26
44148;BME280;29810;55.848;37.368;2023-06-26T03:41:41;99000.22;;;20.01;57.07
44148;BME280;29810;55.848;37.368;2023-06-26T03:44:43;99006.06;;;20.27;56.67
44148;BME280;29810;55.848;37.368;2023-06-26T03:47:45;98996.03;;;21.07;54.61
44148;BME280;29810;55.848;37.368;2023-06-26T03:50:51;98994.16;;;22.02;51.82
44148;BME280;29810;55.848;37.368;2023-06-26T03:53:52;98991.81;;;22.19;51.06
44148;BME280;29810;55.848;37.368;2023-06-26T03:56:55;98992.88;;;23.15;48.96
44148;BME280;29810;55.848;37.368;2023-06-26T03:59:56;98981.56;;;23.61;47.26
44148;BME280;29810;55.848;37.368;2023-06-26T04:02:58;98984.63;;;24.04;46.54
44148;BME280;29810;55.848;37.368;2023-06-26T04:06:00;98979.25;;;24.31;45.86
44148;BME280;29810;55.848;37.368;2023-06-26T04:09:01;98976.31;;;24.71;45.04
44148;BME280;29810;55.848;37.368;2023-06-26T04:12:05;98949.87;;;25.22;43.78
44148;BME280;29810;55.848;37.368;2023-06-26T04:15:07;98955.34;;;27.87;38.61
44148;BME280;29810;55.848;37.368;2023-06-26T04:18:09;98956.41;;;30.59;33.37
44148;BME280;29810;55.848;37.368;2023-06-26T04:21:12;98955.88;;;31.13;31.99
44148;BME280;29810;55.848;37.368;2023-06-26T04:24:14;98957.34;;;32.75;29.54
44148;BME280;29810;55.848;37.368;2023-06-26T04:27:15;98943.25;;;33.92;27.55
44148;BME280;29810;55.848;37.368;2023-06-26T04:30:18;98947.31;;;34.46;26.52
44148;BME280;29810;55.848;37.368;2023-06-26T04:33:19;98933.63;;;35.17;25.16
44148;BME280;29810;55.848;37.368;2023-06-26T04:36:21;98943.84;;;36.08;24.47
44148;BME280;29810;55.848;37.368;2023-06-26T04:39:23;98936.97;;;37.13;22.99
44148;BME280;29810;55.848;37.368;2023-06-26T04:42:25;98947.19;;;37.71;21.57
44148;BME280;29810;55.848;37.368;2023-06-26T04:45:26;98938.78;;;38.13;20.96
44148;BME280;29810;55.848;37.368;2023-06-26T04:48:28;98937.53;;;38.67;19.20
44148;BME280;29810;55.848;37.368;2023-06-26T04:51:30;98933.47;;;39.03;18.59
44148;BME280;29810;55.848;37.368;2023-06-26T04:54:31;98934.19;;;38.76;18.34
44148;BME280;29810;55.848;37.368;2023-06-26T04:57:33;98939.59;;;38.59;17.95
44148;BME280;29810;55.848;37.368;2023-06-26T05:00:35;98938.09;;;38.35;18.37
44148;BME280;29810;55.848;37.368;2023-06-26T05:03:36;98935.66;;;39.18;17.40
44148;BME280;29810;55.848;37.368;2023-06-26T05:06:38;98929.44;;;40.44;15.83
44148;BME280;29810;55.848;37.368;2023-06-26T05:09:40;98931.47;;;40.04;15.81
44148;BME280;29810;55.848;37.368;2023-06-26T05:12:41;98927.78;;;40.43;15.51
44148;BME280;29810;55.848;37.368;2023-06-26T05:15:44;98938.22;;;40.51;15.20
44148;BME280;29810;55.848;37.368;2023-06-26T05:18:45;98950.34;;;40.61;15.10
44148;BME280;29810;55.848;37.368;2023-06-26T05:21:47;98943.28;;;39.83;15.69
44148;BME280;29810;55.848;37.368;2023-06-26T05:24:51;98946.94;;;39.49;16.21
44148;BME280;29810;55.848;37.368;2023-06-26T05:27:55;98948.50;;;38.38;16.95
44148;BME280;29810;55.848;37.368;2023-06-26T05:30:57;98943.84;;;40.39;16.10
44148;BME280;29810;55.848;37.368;2023-06-26T05:34:00;98937.44;;;38.96;16.40
44148;BME280;29810;55.848;37.368;2023-06-26T05:37:05;98939.66;;;39.55;15.86
44148;BME280;29810;55.848;37.368;2023-06-26T05:40:07;98949.78;;;39.59;15.78
44148;BME280;29810;55.848;37.368;2023-06-26T05:43:09;98936.75;;;39.39;15.50
44148;BME280;29810;55.848;37.368;2023-06-26T05:46:11;98940.66;;;39.49;15.50
44148;BME280;29810;55.848;37.368;2023-06-26T05:49:12;98939.34;;;39.51;15.38
44148;BME280;29810;55.848;37.368;2023-06-26T05:52:14;98933.13;;;40.05;15.02
44148;BME280;29810;55.848;37.368;2023-06-26T05:55:16;98943.03;;;39.23;15.57
44148;BME280;29810;55.848;37.368;2023-06-26T05:58:19;98917.78;;;39.28;15.51
44148;BME280;29810;55.848;37.368;2023-06-26T06:01:22;98933.75;;;40.07;15.02
44148;BME280;29810;55.848;37.368;2023-06-26T06:04:23;98938.16;;;39.64;15.13
44148;BME280;29810;55.848;37.368;2023-06-26T06:07:25;98941.91;;;38.34;16.26
44148;BME280;29810;55.848;37.368;2023-06-26T06:10:28;98939.28;;;37.81;16.48
44148;BME280;29810;55.848;37.368;2023-06-26T06:13:29;98950.16;;;37.81;16.71
44148;BME280;29810;55.848;37.368;2023-06-26T06:16:31;98943.09;;;37.56;16.82
44148;BME280;29810;55.848;37.368;2023-06-26T06:19:32;98933.34;;;37.08;17.20
44148;BME280;29810;55.848;37.368;2023-06-26T06:22:34;98935.19;;;35.99;18.10
44148;BME280;29810;55.848;37.368;2023-06-26T06:25:35;98943.81;;;35.77;18.50
44148;BME280;29810;55.848;37.368;2023-06-26T06:28:38;98933.34;;;35.44;18.72
44148;BME280;29810;55.848;37.368;2023-06-26T06:31:39;98935.19;;;34.17;19.71
44148;BME280;29810;55.848;37.368;2023-06-26T06:34:41;98942.53;;;33.51;20.87
44148;BME280;29810;55.848;37.368;2023-06-26T06:37:43;98929.09;;;33.04;21.29
44148;BME280;29810;55.848;37.368;2023-06-26T06:40:44;98929.88;;;33.45;20.89
44148;BME280;29810;55.848;37.368;2023-06-26T06:43:46;98938.22;;;31.87;21.70
44148;BME280;29810;55.848;37.368;2023-06-26T06:46:48;98944.25;;;30.04;24.36
44148;BME280;29810;55.848;37.368;2023-06-26T06:49:49;98941.19;;;28.65;26.45
44148;BME280;29810;55.848;37.368;2023-06-26T06:52:51;98959.22;;;27.20;28.61
44148;BME280;29810;55.848;37.368;2023-06-26T06:55:52;98951.22;;;26.54;29.74
44148;BME280;29810;55.848;37.368;2023-06-26T06:58:54;98948.47;;;26.13;30.25
44148;BME280;29810;55.848;37.368;2023-06-26T07:01:56;98956.47;;;26.05;30.21
44148;BME280;29810;55.848;37.368;2023-06-26T07:04:57;98952.13;;;25.69;29.85
44148;BME280;29810;55.848;37.368;2023-06-26T07:07:59;98960.84;;;25.19;30.76
44148;BME280;29810;55.848;37.368;2023-06-26T07:11:01;98947.78;;;25.07;31.42
44148;BME280;29810;55.848;37.368;2023-06-26T07:14:02;98950.00;;;25.38;31.01
44148;BME280;29810;55.848;37.368;2023-06-26T07:17:04;98956.50;;;25.36;29.14
44148;BME280;29810;55.848;37.368;2023-06-26T07:20:12;98953.97;;;25.34;29.84
44148;BME280;29810;55.848;37.368;2023-06-26T07:23:16;98962.84;;;25.43;29.30
44148;BME280;29810;55.848;37.368;2023-06-26T07:26:18;98944.28;;;25.33;28.61
44148;BME280;29810;55.848;37.368;2023-06-26T07:29:20;98935.81;;;25.38;28.59
44148;BME280;29810;55.848;37.368;2023-06-26T07:32:21;98943.91;;;25.54;28.69
44148;BME280;29810;55.848;37.368;2023-06-26T07:35:23;98934.94;;;26.06;28.19
44148;BME280;29810;55.848;37.368;2023-06-26T07:38:26;98935.34;;;26.36;28.24
44148;BME280;29810;55.848;37.368;2023-06-26T07:41:27;98936.16;;;26.37;27.78
44148;BME280;29810;55.848;37.368;2023-06-26T07:44:31;98933.97;;;26.07;27.99
44148;BME280;29810;55.848;37.368;2023-06-26T07:47:33;98933.19;;;25.89;28.20
44148;BME280;29810;55.848;37.368;2023-06-26T07:50:34;98942.16;;;25.79;28.32
44148;BME280;29810;55.848;37.368;2023-06-26T07:53:36;98933.16;;;25.81;28.82
44148;BME280;29810;55.848;37.368;2023-06-26T07:57:04;98934.03;;;25.81;28.79
44148;BME280;29810;55.848;37.368;2023-06-26T08:00:08;98939.03;;;25.84;28.86
44148;BME280;29810;55.848;37.368;2023-06-26T08:03:15;98932.09;;;25.30;29.25
44148;BME280;29810;55.848;37.368;2023-06-26T08:06:16;98927.91;;;25.02;29.32
44148;BME280;29810;55.848;37.368;2023-06-26T08:09:19;98929.53;;;24.76;30.23
44148;BME280;29810;55.848;37.368;2023-06-26T08:12:21;98928.50;;;24.69;30.10
44148;BME280;29810;55.848;37.368;2023-06-26T08:15:23;98924.16;;;24.68;30.69
44148;BME280;29810;55.848;37.368;2023-06-26T08:18:24;98926.09;;;24.84;30.00
44148;BME280;29810;55.848;37.368;2023-06-26T08:21:26;98926.91;;;25.29;29.65
44148;BME280;29810;55.848;37.368;2023-06-26T08:24:28;98909.50;;;25.17;29.37
44148;BME280;29810;55.848;37.368;2023-06-26T08:27:29;98936.22;;;25.25;29.76
44148;BME280;29810;55.848;37.368;2023-06-26T08:30:32;98927.91;;;25.02;29.85
44148;BME280;29810;55.848;37.368;2023-06-26T08:33:33;98929.34;;;24.96;30.26
44148;BME280;29810;55.848;37.368;2023-06-26T08:36:35;98925.50;;;24.90;29.97
44148;BME280;29810;55.848;37.368;2023-06-26T08:39:37;98932.91;;;24.78;30.93
44148;BME280;29810;55.848;37.368;2023-06-26T08:42:38;98934.97;;;24.67;31.04
44148;BME280;29810;55.848;37.368;2023-06-26T08:45:40;98920.66;;;24.50;31.29
44148;BME280;29810;55.848;37.368;2023-06-26T08:49:20;98935.19;;;24.37;31.50
44148;BME280;29810;55.848;37.368;2023-06-26T08:52:36;98929.13;;;24.27;31.49
44148;BME280;29810;55.848;37.368;2023-06-26T08:55:41;98922.84;;;24.54;31.36
44148;BME280;29810;55.848;37.368;2023-06-26T08:58:44;98916.63;;;25.08;30.55
44148;BME280;29810;55.848;37.368;2023-06-26T09:01:46;98920.81;;;25.37;30.33
44148;BME280;29810;55.848;37.368;2023-06-26T09:04:48;98905.94;;;25.34;30.58
44148;BME280;29810;55.848;37.368;2023-06-26T09:07:53;98907.91;;;25.32;29.98
44148;BME280;29810;55.848;37.368;2023-06-26T09:10:56;98907.00;;;25.50;29.07
44148;BME280;29810;55.848;37.368;2023-06-26T09:13:59;98908.59;;;25.69;28.70
44148;BME280;29810;55.848;37.368;2023-06-26T09:17:00;98910.47;;;25.76;28.61
44148;BME280;29810;55.848;37.368;2023-06-26T09:20:04;98906.66;;;25.87;28.34
44148;BME280;29810;55.848;37.368;2023-06-26T09:23:05;98912.59;;;26.07;28.72
44148;BME280;29810;55.848;37.368;2023-06-26T09:26:07;98915.19;;;25.99;29.10
44148;BME280;29810;55.848;37.368;2023-06-26T09:29:09;98919.56;;;25.57;28.98
44148;BME280;29810;55.848;37.368;2023-06-26T09:32:13;98912.31;;;25.15;29.76
44148;BME280;29810;55.848;37.368;2023-06-26T09:35:14;98904.69;;;24.94;30.16
44148;BME280;29810;55.848;37.368;2023-06-26T09:38:16;98905.66;;;24.48;30.86
44148;BME280;29810;55.848;37.368;2023-06-26T09:41:19;98907.81;;;24.27;31.48
44148;BME280;29810;55.848;37.368;2023-06-26T09:44:21;98903.37;;;24.18;32.11
44148;BME280;29810;55.848;37.368;2023-06-26T09:47:23;98906.34;;;24.33;31.57
44148;BME280;29810;55.848;37.368;2023-06-26T09:50:25;98899.34;;;24.50;31.45
44148;BME280;29810;55.848;37.368;2023-06-26T09:53:28;98891.81;;;24.89;30.94
44148;BME280;29810;55.848;37.368;2023-06-26T09:56:31;98895.84;;;25.20;30.47
44148;BME280;29810;55.848;37.368;2023-06-26T09:59:33;98895.91;;;25.28;30.04
44148;BME280;29810;55.848;37.368;2023-06-26T10:02:36;98893.88;;;25.30;29.94
44148;BME280;29810;55.848;37.368;2023-06-26T10:05:38;98889.84;;;25.18;29.86
44148;BME280;29810;55.848;37.368;2023-06-26T10:08:41;98891.41;;;25.02;30.20
44148;BME280;29810;55.848;37.368;2023-06-26T10:12:05;98886.56;;;24.98;30.21
44148;BME280;29810;55.848;37.368;2023-06-26T10:15:08;98891.41;;;25.02;30.37
44148;BME280;29810;55.848;37.368;2023-06-26T10:18:15;98888.03;;;24.74;30.46
44148;BME280;29810;55.848;37.368;2023-06-26T10:21:20;98886.84;;;24.94;30.18
44148;BME280;29810;55.848;37.368;2023-06-26T10:24:23;98870.63;;;25.14;30.06
44148;BME280;29810;55.848;37.368;2023-06-26T10:27:30;98872.13;;;25.43;29.24
44148;BME280;29810;55.848;37.368;2023-06-26T10:30:36;98883.84;;;25.50;29.04
44148;BME280;29810;55.848;37.368;2023-06-26T10:33:38;98884.06;;;25.65;29.65
44148;BME280;29810;55.848;37.368;2023-06-26T10:36:40;98880.69;;;25.55;30.54
44148;BME280;29810;55.848;37.368;2023-06-26T10:39:51;98887.69;;;25.48;31.05
44148;BME280;29810;55.848;37.368;2023-06-26T10:43:07;98885.38;;;25.53;31.21
44148;BME280;29810;55.848;37.368;2023-06-26T10:46:15;98876.91;;;25.66;31.18
44148;BME280;29810;55.848;37.368;2023-06-26T10:49:17;98880.75;;;25.71;31.59
44148;BME280;29810;55.848;37.368;2023-06-26T10:52:18;98877.44;;;25.86;31.30
44148;BME280;29810;55.848;37.368;2023-06-26T10:55:27;98877.81;;;25.99;30.89
44148;BME280;29810;55.848;37.368;2023-06-26T11:01:40;98877.78;;;25.83;31.18
44148;BME280;29810;55.848;37.368;2023-06-26T11:04:47;98880.75;;;25.79;32.15
44148;BME280;29810;55.848;37.368;2023-06-26T11:08:05;98864.03;;;25.61;31.73
44148;BME280;29810;55.848;37.368;2023-06-26T11:11:06;98860.38;;;25.62;31.58
44148;BME280;29810;55.848;37.368;2023-06-26T11:14:08;98862.22;;;25.70;30.99
44148;BME280;29810;55.848;37.368;2023-06-26T11:17:11;98866.09;;;25.84;30.88
44148;BME280;29810;55.848;37.368;2023-06-26T11:20:16;98862.28;;;26.03;30.17
44148;BME280;29810;55.848;37.368;2023-06-26T11:23:22;98860.38;;;26.30;30.12
44148;BME280;29810;55.848;37.368;2023-06-26T11:26:26;98847.47;;;26.50;29.74
44148;BME280;29810;55.848;37.368;2023-06-26T11:29:27;98851.00;;;26.58;29.62
44148;BME280;29810;55.848;37.368;2023-06-26T11:32:29;98848.50;;;26.73;29.17
44148;BME280;29810;55.848;37.368;2023-06-26T11:35:30;98844.94;;;26.98;28.92
44148;BME280;29810;55.848;37.368;2023-06-26T11:38:38;98836.44;;;26.86;28.38
44148;BME280;29810;55.848;37.368;2023-06-26T11:41:40;98842.25;;;26.89;28.18
44148;BME280;29810;55.848;37.368;2023-06-26T11:44:44;98825.69;;;27.02;27.75
44148;BME280;29810;55.848;37.368;2023-06-26T11:47:45;98824.38;;;27.46;27.25
44148;BME280;29810;55.848;37.368;2023-06-26T11:50:50;98825.63;;;27.67;27.08
44148;BME280;29810;55.848;37.368;2023-06-26T11:53:52;98818.91;;;27.39;26.13
44148;BME280;29810;55.848;37.368;2023-06-26T11:56:56;98833.91;;;27.40;26.24
44148;BME280;29810;55.848;37.368;2023-06-26T12:00:10;98840.06;;;27.09;26.56
44148;BME280;29810;55.848;37.368;2023-06-26T12:03:12;98848.50;;;26.57;28.52
44148;BME280;29810;55.848;37.368;2023-06-26T12:06:14;98846.16;;;25.53;30.73
44148;BME280;29810;55.848;37.368;2023-06-26T12:09:18;98841.38;;;24.52;32.52
44148;BME280;29810;55.848;37.368;2023-06-26T12:12:20;98847.78;;;24.77;32.50
44148;BME280;29810;55.848;37.368;2023-06-26T12:15:22;98859.13;;;24.61;31.81
44148;BME280;29810;55.848;37.368;2023-06-26T12:18:23;98834.00;;;24.01;33.62
44148;BME280;29810;55.848;37.368;2023-06-26T12:21:33;98829.00;;;23.88;33.67
44148;BME280;29810;55.848;37.368;2023-06-26T12:24:38;98822.88;;;23.88;33.42
44148;BME280;29810;55.848;37.368;2023-06-26T12:27:40;98816.12;;;23.93;32.83
44148;BME280;29810;55.848;37.368;2023-06-26T12:30:46;98803.56;;;24.04;32.41
44148;BME280;29810;55.848;37.368;2023-06-26T12:33:48;98819.37;;;24.05;31.58
44148;BME280;29810;55.848;37.368;2023-06-26T12:36:50;98814.44;;;23.92;32.28
44148;BME280;29810;55.848;37.368;2023-06-26T12:39:57;98818.56;;;24.05;32.03
44148;BME280;29810;55.848;37.368;2023-06-26T12:42:58;98805.97;;;24.33;31.37
44148;BME280;29810;55.848;37.368;2023-06-26T12:46:00;98786.00;;;24.37;30.75
44148;BME280;29810;55.848;37.368;2023-06-26T12:49:02;98795.44;;;24.50;30.42
44148;BME280;29810;55.848;37.368;2023-06-26T12:52:06;98802.81;;;24.56;30.78
44148;BME280;29810;55.848;37.368;2023-06-26T12:55:08;98795.44;;;24.50;31.20
44148;BME280;29810;55.848;37.368;2023-06-26T12:58:10;98802.44;;;24.69;30.88
44148;BME280;29810;55.848;37.368;2023-06-26T13:01:11;98788.63;;;24.73;31.05
44148;BME280;29810;55.848;37.368;2023-06-26T13:04:15;98792.94;;;24.48;31.01
44148;BME280;29810;55.848;37.368;2023-06-26T13:07:17;98791.28;;;24.29;31.92
44148;BME280;29810;55.848;37.368;2023-06-26T13:10:19;98786.50;;;24.59;31.67
44148;BME280;29810;55.848;37.368;2023-06-26T13:13:21;98772.34;;;24.85;31.32
44148;BME280;29810;55.848;37.368;2023-06-26T13:16:23;98764.41;;;25.01;31.00
44148;BME280;29810;55.848;37.368;2023-06-26T13:19:25;98767.50;;;25.23;30.74
44148;BME280;29810;55.848;37.368;2023-06-26T13:22:27;98768.25;;;25.50;30.15
44148;BME280;29810;55.848;37.368;2023-06-26T13:25:29;98763.47;;;25.78;29.53
44148;BME280;29810;55.848;37.368;2023-06-26T13:28:31;98741.59;;;25.66;29.30
44148;BME280;29810;55.848;37.368;2023-06-26T13:31:32;98753.84;;;26.10;29.04
44148;BME280;29810;55.848;37.368;2023-06-26T13:34:34;98752.31;;;26.40;28.93
44148;BME280;29810;55.848;37.368;2023-06-26T13:37:36;98727.72;;;26.53;28.03
44148;BME280;29810;55.848;37.368;2023-06-26T13:40:38;98739.78;;;26.33;28.11
44148;BME280;29810;55.848;37.368;2023-06-26T13:43:39;98729.59;;;26.03;28.78
44148;BME280;29810;55.848;37.368;2023-06-26T13:46:41;98727.75;;;25.62;29.43
44148;BME280;29810;55.848;37.368;2023-06-26T13:49:42;98737.00;;;25.25;29.61
44148;BME280;29810;55.848;37.368;2023-06-26T13:52:44;98740.22;;;24.94;30.31
44148;BME280;29810;55.848;37.368;2023-06-26T13:55:45;98764.78;;;24.45;33.13
44148;BME280;29810;55.848;37.368;2023-06-26T13:58:47;98759.34;;;23.39;38.46
44148;BME280;29810;55.848;37.368;2023-06-26T14:01:48;98773.72;;;22.13;39.95
44148;BME280;29810;55.848;37.368;2023-06-26T14:04:50;98766.66;;;21.34;43.59
44148;BME280;29810;55.848;37.368;2023-06-26T14:07:52;98762.56;;;21.61;42.88
44148;BME280;29810;55.848;37.368;2023-06-26T14:10:55;98754.31;;;22.03;41.67
44148;BME280;29810;55.848;37.368;2023-06-26T14:13:57;98747.12;;;22.53;38.16
44148;BME280;29810;55.848;37.368;2023-06-26T14:16:58;98748.16;;;22.79;36.95
44148;BME280;29810;55.848;37.368;2023-06-26T14:20:00;98745.00;;;22.94;37.00
44148;BME280;29810;55.848;37.368;2023-06-26T14:23:02;98747.84;;;23.10;36.72
44148;BME280;29810;55.848;37.368;2023-06-26T14:26:03;98735.13;;;23.14;36.48
44148;BME280;29810;55.848;37.368;2023-06-26T14:29:05;98734.47;;;23.30;35.47
44148;BME280;29810;55.848;37.368;2023-06-26T14:32:07;98736.53;;;23.36;36.18
44148;BME280;29810;55.848;37.368;2023-06-26T14:35:09;98723.78;;;23.58;35.81
44148;BME280;29810;55.848;37.368;2023-06-26T14:38:10;98732.00;;;23.83;34.68
44148;BME280;29810;55.848;37.368;2023-06-26T14:41:13;98732.28;;;24.16;34.00
44148;BME280;29810;55.848;37.368;2023-06-26T14:44:15;98733.09;;;24.42;32.65
44148;BME280;29810;55.848;37.368;2023-06-26T14:47:17;98729.09;;;24.64;32.32
44148;BME280;29810;55.848;37.368;2023-06-26T14:50:20;98716.03;;;24.88;32.18
44148;BME280;29810;55.848;37.368;2023-06-26T14:53:22;98719.78;;;25.11;32.04
44148;BME280;29810;55.848;37.368;2023-06-26T14:56:23;98708.13;;;25.12;31.15
44148;BME280;29810;55.848;37.368;2023-06-26T14:59:26;98696.59;;;25.04;30.87
44148;BME280;29810;55.848;37.368;2023-06-26T15:02:27;98701.19;;;24.77;31.69
44148;BME280;29810;55.848;37.368;2023-06-26T15:05:29;98707.16;;;24.44;31.41
44148;BME280;29810;55.848;37.368;2023-06-26T15:08:30;98682.59;;;24.59;31.10
44148;BME280;29810;55.848;37.368;2023-06-26T15:11:32;98687.00;;;24.76;31.08
44148;BME280;29810;55.848;37.368;2023-06-26T15:14:35;98702.34;;;24.74;30.96
44148;BME280;29810;55.848;37.368;2023-06-26T15:17:37;98695.34;;;24.47;31.22
44148;BME280;29810;55.848;37.368;2023-06-26T15:20:38;98692.44;;;24.32;31.67
44148;BME280;29810;55.848;37.368;2023-06-26T15:23:40;98700.91;;;24.01;31.84
44148;BME280;29810;55.848;37.368;2023-06-26T15:26:41;98692.91;;;23.83;32.16
44148;BME280;29810;55.848;37.368;2023-06-26T15:29:43;98684.88;;;23.75;32.17
44148;BME280;29810;55.848;37.368;2023-06-26T15:32:45;98687.75;;;23.63;32.27
44148;BME280;29810;55.848;37.368;2023-06-26T15:35:46;98680.53;;;23.56;32.36
44148;BME280;29810;55.848;37.368;2023-06-26T15:38:48;98683.50;;;23.53;32.63
44148;BME280;29810;55.848;37.368;2023-06-26T15:41:49;98680.16;;;23.51;32.63
44148;BME280;29810;55.848;37.368;2023-06-26T15:44:51;98692.91;;;23.47;32.70
44148;BME280;29810;55.848;37.368;2023-06-26T15:47:53;98688.72;;;23.44;33.08
44148;BME280;29810;55.848;37.368;2023-06-26T15:50:54;98682.37;;;23.37;33.02
44148;BME280;29810;55.848;37.368;2023-06-26T15:53:56;98680.38;;;23.39;32.63
44148;BME280;29810;55.848;37.368;2023-06-26T15:56:58;98681.53;;;23.37;33.07
44148;BME280;29810;55.848;37.368;2023-06-26T16:00:00;98664.56;;;23.20;32.76
44148;BME280;29810;55.848;37.368;2023-06-26T16:03:01;98680.69;;;23.36;32.95